sensor_id;sensor_type;location;lat;lon;timestamp;P1;durP1;ratioP1;P2;durP2;ratioP2
20101;SDS011;10210;52.284;9.892;2023-12-29T00:02:01;8.67;;;1.87;;
20101;SDS011;10210;52.284;9.892;2023-12-29T00:04:26;8.03;;;2.00;;
20101;SDS011;10210;52.284;9.892;2023-12-29T00:06:52;7.60;;;1.80;;
20101;SDS011;10210;52.284;9.892;2023-12-29T00:09:18;10.43;;;1.97;;
20101;SDS011;10210;52.284;9.892;2023-12-29T00:11:49;7.63;;;1.93;;
20101;SDS011;10210;52.284;9.892;2023-12-29T00:14:16;6.33;;;1.40;;
20101;SDS011;10210;52.284;9.892;2023-12-29T00:16:42;11.27;;;2.07;;
20101;SDS011;10210;52.284;9.892;2023-12-29T00:19:09;10.50;;;1.93;;
20101;SDS011;10210;52.284;9.892;2023-12-29T00:21:36;6.83;;;1.67;;
20101;SDS011;10210;52.284;9.892;2023-12-29T00:24:01;7.63;;;1.73;;
20101;SDS011;10210;52.284;9.892;2023-12-29T00:26:27;8.03;;;1.90;;
20101;SDS011;10210;52.284;9.892;2023-12-29T00:28:54;10.33;;;2.17;;
20101;SDS011;10210;52.284;9.892;2023-12-29T00:31:19;8.73;;;1.60;;
20101;SDS011;10210;52.284;9.892;2023-12-29T00:33:45;9.93;;;1.80;;
20101;SDS011;10210;52.284;9.892;2023-12-29T00:36:15;7.03;;;1.67;;
20101;SDS011;10210;52.284;9.892;2023-12-29T00:38:41;6.67;;;1.70;;
20101;SDS011;10210;52.284;9.892;2023-12-29T00:41:07;6.77;;;1.50;;
20101;SDS011;10210;52.284;9.892;2023-12-29T00:43:34;7.80;;;1.80;;
20101;SDS011;10210;52.284;9.892;2023-12-29T00:46:03;8.37;;;1.87;;
20101;SDS011;10210;52.284;9.892;2023-12-29T00:48:33;6.30;;;1.80;;
20101;SDS011;10210;52.284;9.892;2023-12-29T00:51:00;6.77;;;1.70;;
20101;SDS011;10210;52.284;9.892;2023-12-29T00:53:27;5.87;;;1.60;;
20101;SDS011;10210;52.284;9.892;2023-12-29T00:55:54;8.77;;;1.80;;
20101;SDS011;10210;52.284;9.892;2023-12-29T00:58:20;6.50;;;1.60;;
20101;SDS011;10210;52.284;9.892;2023-12-29T01:00:45;7.53;;;1.80;;
20101;SDS011;10210;52.284;9.892;2023-12-29T01:03:11;7.77;;;1.63;;
20101;SDS011;10210;52.284;9.892;2023-12-29T01:05:37;7.40;;;1.63;;
20101;SDS011;10210;52.284;9.892;2023-12-29T01:08:02;6.50;;;1.80;;
20101;SDS011;10210;52.284;9.892;2023-12-29T01:10:28;9.37;;;2.00;;
20101;SDS011;10210;52.284;9.892;2023-12-29T01:12:54;6.83;;;1.70;;
20101;SDS011;10210;52.284;9.892;2023-12-29T01:15:19;7.50;;;1.70;;
20101;SDS011;10210;52.284;9.892;2023-12-29T01:17:45;3.83;;;1.43;;
20101;SDS011;10210;52.284;9.892;2023-12-29T01:20:10;4.90;;;1.60;;
20101;SDS011;10210;52.284;9.892;2023-12-29T01:22:36;10.77;;;1.80;;
20101;SDS011;10210;52.284;9.892;2023-12-29T01:25:02;8.23;;;1.90;;
20101;SDS011;10210;52.284;9.892;2023-12-29T01:27:28;8.27;;;2.10;;
20101;SDS011;10210;52.284;9.892;2023-12-29T01:29:55;7.03;;;1.70;;
20101;SDS011;10210;52.284;9.892;2023-12-29T01:32:20;9.03;;;2.20;;
20101;SDS011;10210;52.284;9.892;2023-12-29T01:34:47;9.17;;;1.70;;
20101;SDS011;10210;52.284;9.892;2023-12-29T01:37:12;6.60;;;1.50;;
20101;SDS011;10210;52.284;9.892;2023-12-29T01:39:38;6.73;;;1.70;;
20101;SDS011;10210;52.284;9.892;2023-12-29T01:42:05;7.30;;;1.97;;
20101;SDS011;10210;52.284;9.892;2023-12-29T01:44:31;7.17;;;1.73;;
20101;SDS011;10210;52.284;9.892;2023-12-29T01:47:00;8.83;;;1.80;;
20101;SDS011;10210;52.284;9.892;2023-12-29T01:49:31;9.37;;;1.67;;
20101;SDS011;10210;52.284;9.892;2023-12-29T01:51:59;6.73;;;1.67;;
20101;SDS011;10210;52.284;9.892;2023-12-29T01:54:27;9.27;;;1.97;;
20101;SDS011;10210;52.284;9.892;2023-12-29T01:56:59;8.43;;;1.60;;
20101;SDS011;10210;52.284;9.892;2023-12-29T01:59:27;5.23;;;1.60;;
20101;SDS011;10210;52.284;9.892;2023-12-29T02:01:56;7.13;;;1.80;;
20101;SDS011;10210;52.284;9.892;2023-12-29T02:04:26;8.13;;;1.73;;
20101;SDS011;10210;52.284;9.892;2023-12-29T02:06:53;6.67;;;1.53;;
20101;SDS011;10210;52.284;9.892;2023-12-29T02:09:20;10.50;;;2.33;;
20101;SDS011;10210;52.284;9.892;2023-12-29T02:11:47;8.70;;;2.10;;
20101;SDS011;10210;52.284;9.892;2023-12-29T02:14:14;10.80;;;1.80;;
20101;SDS011;10210;52.284;9.892;2023-12-29T02:19:45;8.80;;;2.03;;
20101;SDS011;10210;52.284;9.892;2023-12-29T02:22:14;8.90;;;1.50;;
20101;SDS011;10210;52.284;9.892;2023-12-29T02:24:43;5.93;;;1.43;;
20101;SDS011;10210;52.284;9.892;2023-12-29T02:33:07;6.87;;;1.77;;
20101;SDS011;10210;52.284;9.892;2023-12-29T02:35:42;7.87;;;1.70;;
20101;SDS011;10210;52.284;9.892;2023-12-29T02:38:10;10.27;;;1.70;;
20101;SDS011;10210;52.284;9.892;2023-12-29T02:40:37;7.53;;;1.70;;
20101;SDS011;10210;52.284;9.892;2023-12-29T02:43:03;6.10;;;1.70;;
20101;SDS011;10210;52.284;9.892;2023-12-29T02:45:29;10.00;;;2.17;;
20101;SDS011;10210;52.284;9.892;2023-12-29T02:47:54;6.10;;;1.70;;
20101;SDS011;10210;52.284;9.892;2023-12-29T02:50:20;7.50;;;1.77;;
20101;SDS011;10210;52.284;9.892;2023-12-29T02:52:46;8.93;;;2.20;;
20101;SDS011;10210;52.284;9.892;2023-12-29T02:55:11;8.80;;;1.70;;
20101;SDS011;10210;52.284;9.892;2023-12-29T02:57:37;5.80;;;1.60;;
20101;SDS011;10210;52.284;9.892;2023-12-29T03:00:04;6.70;;;1.50;;
20101;SDS011;10210;52.284;9.892;2023-12-29T03:02:31;5.17;;;1.60;;
20101;SDS011;10210;52.284;9.892;2023-12-29T03:04:57;6.10;;;1.57;;
20101;SDS011;10210;52.284;9.892;2023-12-29T03:07:23;7.67;;;1.60;;
20101;SDS011;10210;52.284;9.892;2023-12-29T03:09:49;7.53;;;1.80;;
20101;SDS011;10210;52.284;9.892;2023-12-29T03:12:15;7.63;;;1.60;;
20101;SDS011;10210;52.284;9.892;2023-12-29T03:14:41;6.30;;;1.40;;
20101;SDS011;10210;52.284;9.892;2023-12-29T03:17:07;7.70;;;1.80;;
20101;SDS011;10210;52.284;9.892;2023-12-29T03:19:32;7.40;;;1.83;;
20101;SDS011;10210;52.284;9.892;2023-12-29T03:21:59;8.77;;;1.70;;
20101;SDS011;10210;52.284;9.892;2023-12-29T03:24:24;5.37;;;1.43;;
20101;SDS011;10210;52.284;9.892;2023-12-29T03:26:50;5.90;;;1.30;;
20101;SDS011;10210;52.284;9.892;2023-12-29T03:29:16;5.37;;;1.40;;
20101;SDS011;10210;52.284;9.892;2023-12-29T03:31:41;6.97;;;1.70;;
20101;SDS011;10210;52.284;9.892;2023-12-29T03:34:07;7.83;;;1.53;;
20101;SDS011;10210;52.284;9.892;2023-12-29T03:36:33;6.63;;;1.60;;
20101;SDS011;10210;52.284;9.892;2023-12-29T03:38:59;4.17;;;1.37;;
20101;SDS011;10210;52.284;9.892;2023-12-29T03:41:25;4.83;;;1.23;;
20101;SDS011;10210;52.284;9.892;2023-12-29T03:43:50;5.87;;;1.47;;
20101;SDS011;10210;52.284;9.892;2023-12-29T03:46:17;9.43;;;1.50;;
20101;SDS011;10210;52.284;9.892;2023-12-29T03:48:43;3.50;;;1.20;;
20101;SDS011;10210;52.284;9.892;2023-12-29T03:51:09;4.87;;;1.13;;
20101;SDS011;10210;52.284;9.892;2023-12-29T03:53:35;4.70;;;1.30;;
20101;SDS011;10210;52.284;9.892;2023-12-29T03:56:07;4.33;;;1.27;;
20101;SDS011;10210;52.284;9.892;2023-12-29T03:58:34;8.40;;;1.30;;
20101;SDS011;10210;52.284;9.892;2023-12-29T04:01:00;3.80;;;0.80;;
20101;SDS011;10210;52.284;9.892;2023-12-29T04:03:27;4.37;;;1.00;;
20101;SDS011;10210;52.284;9.892;2023-12-29T04:05:53;3.90;;;0.83;;
20101;SDS011;10210;52.284;9.892;2023-12-29T04:08:18;5.97;;;1.37;;
20101;SDS011;10210;52.284;9.892;2023-12-29T04:10:44;3.30;;;1.03;;
20101;SDS011;10210;52.284;9.892;2023-12-29T04:13:09;4.73;;;1.00;;
20101;SDS011;10210;52.284;9.892;2023-12-29T04:15:35;2.97;;;0.90;;
20101;SDS011;10210;52.284;9.892;2023-12-29T04:18:01;4.93;;;1.10;;
20101;SDS011;10210;52.284;9.892;2023-12-29T04:20:26;3.63;;;1.00;;
20101;SDS011;10210;52.284;9.892;2023-12-29T04:22:52;4.37;;;1.00;;
20101;SDS011;10210;52.284;9.892;2023-12-29T04:25:18;4.93;;;1.23;;
20101;SDS011;10210;52.284;9.892;2023-12-29T04:27:44;5.47;;;1.17;;
20101;SDS011;10210;52.284;9.892;2023-12-29T04:30:09;5.03;;;1.43;;
20101;SDS011;10210;52.284;9.892;2023-12-29T04:32:35;6.47;;;1.27;;
20101;SDS011;10210;52.284;9.892;2023-12-29T04:35:01;5.07;;;1.53;;
20101;SDS011;10210;52.284;9.892;2023-12-29T04:37:27;4.23;;;1.20;;
20101;SDS011;10210;52.284;9.892;2023-12-29T04:39:52;6.10;;;1.10;;
20101;SDS011;10210;52.284;9.892;2023-12-29T04:42:18;7.03;;;1.40;;
20101;SDS011;10210;52.284;9.892;2023-12-29T04:44:44;3.87;;;1.30;;
20101;SDS011;10210;52.284;9.892;2023-12-29T04:47:09;5.73;;;1.27;;
20101;SDS011;10210;52.284;9.892;2023-12-29T04:49:35;6.27;;;1.20;;
20101;SDS011;10210;52.284;9.892;2023-12-29T04:52:01;5.33;;;1.30;;
20101;SDS011;10210;52.284;9.892;2023-12-29T04:54:27;4.83;;;1.30;;
20101;SDS011;10210;52.284;9.892;2023-12-29T04:56:52;5.37;;;1.17;;
20101;SDS011;10210;52.284;9.892;2023-12-29T04:59:18;7.00;;;1.30;;
20101;SDS011;10210;52.284;9.892;2023-12-29T05:01:44;4.40;;;1.10;;
20101;SDS011;10210;52.284;9.892;2023-12-29T05:04:10;4.17;;;1.23;;
20101;SDS011;10210;52.284;9.892;2023-12-29T05:06:35;7.37;;;1.20;;
20101;SDS011;10210;52.284;9.892;2023-12-29T05:09:01;3.73;;;1.20;;
20101;SDS011;10210;52.284;9.892;2023-12-29T05:11:27;4.13;;;1.10;;
20101;SDS011;10210;52.284;9.892;2023-12-29T05:13:53;4.90;;;1.10;;
20101;SDS011;10210;52.284;9.892;2023-12-29T05:16:18;3.70;;;1.00;;
20101;SDS011;10210;52.284;9.892;2023-12-29T05:18:44;5.57;;;1.20;;
20101;SDS011;10210;52.284;9.892;2023-12-29T05:21:14;5.73;;;1.20;;
20101;SDS011;10210;52.284;9.892;2023-12-29T05:23:43;3.97;;;1.10;;
20101;SDS011;10210;52.284;9.892;2023-12-29T05:26:13;4.77;;;1.17;;
20101;SDS011;10210;52.284;9.892;2023-12-29T05:28:40;5.73;;;1.30;;
20101;SDS011;10210;52.284;9.892;2023-12-29T05:31:06;4.80;;;1.30;;
20101;SDS011;10210;52.284;9.892;2023-12-29T05:33:31;4.73;;;1.30;;
20101;SDS011;10210;52.284;9.892;2023-12-29T05:35:59;6.03;;;1.40;;
20101;SDS011;10210;52.284;9.892;2023-12-29T05:38:34;3.83;;;1.30;;
20101;SDS011;10210;52.284;9.892;2023-12-29T05:41:01;6.57;;;1.60;;
20101;SDS011;10210;52.284;9.892;2023-12-29T05:43:30;5.43;;;1.40;;
20101;SDS011;10210;52.284;9.892;2023-12-29T05:45:58;5.40;;;1.50;;
20101;SDS011;10210;52.284;9.892;2023-12-29T05:48:23;4.53;;;1.50;;
20101;SDS011;10210;52.284;9.892;2023-12-29T05:50:50;5.13;;;1.57;;
20101;SDS011;10210;52.284;9.892;2023-12-29T05:53:15;7.30;;;1.70;;
20101;SDS011;10210;52.284;9.892;2023-12-29T05:55:41;3.93;;;1.40;;
20101;SDS011;10210;52.284;9.892;2023-12-29T05:58:08;8.10;;;1.63;;
20101;SDS011;10210;52.284;9.892;2023-12-29T06:00:33;8.33;;;1.80;;
20101;SDS011;10210;52.284;9.892;2023-12-29T06:03:01;7.43;;;1.50;;
20101;SDS011;10210;52.284;9.892;2023-12-29T06:05:29;7.37;;;1.70;;
20101;SDS011;10210;52.284;9.892;2023-12-29T06:07:55;5.30;;;1.70;;
20101;SDS011;10210;52.284;9.892;2023-12-29T06:10:21;6.37;;;1.50;;
20101;SDS011;10210;52.284;9.892;2023-12-29T06:12:47;9.47;;;2.03;;
20101;SDS011;10210;52.284;9.892;2023-12-29T06:15:13;9.40;;;1.83;;
20101;SDS011;10210;52.284;9.892;2023-12-29T06:17:41;9.27;;;1.87;;
20101;SDS011;10210;52.284;9.892;2023-12-29T06:20:08;7.77;;;1.60;;
20101;SDS011;10210;52.284;9.892;2023-12-29T06:22:39;7.63;;;1.90;;
20101;SDS011;10210;52.284;9.892;2023-12-29T06:25:09;8.90;;;2.20;;
20101;SDS011;10210;52.284;9.892;2023-12-29T06:27:36;7.40;;;1.93;;
20101;SDS011;10210;52.284;9.892;2023-12-29T06:30:06;7.13;;;1.80;;
20101;SDS011;10210;52.284;9.892;2023-12-29T06:32:34;12.00;;;2.20;;
20101;SDS011;10210;52.284;9.892;2023-12-29T06:35:00;8.10;;;2.03;;
20101;SDS011;10210;52.284;9.892;2023-12-29T06:37:26;6.87;;;1.80;;
20101;SDS011;10210;52.284;9.892;2023-12-29T06:39:51;8.10;;;1.73;;
20101;SDS011;10210;52.284;9.892;2023-12-29T06:42:17;9.27;;;1.90;;
20101;SDS011;10210;52.284;9.892;2023-12-29T06:44:42;6.60;;;1.83;;
20101;SDS011;10210;52.284;9.892;2023-12-29T06:47:08;6.93;;;1.90;;
20101;SDS011;10210;52.284;9.892;2023-12-29T06:49:34;7.83;;;1.97;;
20101;SDS011;10210;52.284;9.892;2023-12-29T06:52:00;8.63;;;2.10;;
20101;SDS011;10210;52.284;9.892;2023-12-29T06:54:26;9.23;;;1.90;;
20101;SDS011;10210;52.284;9.892;2023-12-29T06:56:52;8.03;;;1.90;;
20101;SDS011;10210;52.284;9.892;2023-12-29T06:59:18;8.10;;;2.13;;
20101;SDS011;10210;52.284;9.892;2023-12-29T07:01:44;9.90;;;2.57;;
20101;SDS011;10210;52.284;9.892;2023-12-29T07:04:13;7.13;;;1.90;;
20101;SDS011;10210;52.284;9.892;2023-12-29T07:06:40;8.80;;;1.93;;
20101;SDS011;10210;52.284;9.892;2023-12-29T07:09:06;6.43;;;1.80;;
20101;SDS011;10210;52.284;9.892;2023-12-29T07:11:34;6.83;;;1.90;;
20101;SDS011;10210;52.284;9.892;2023-12-29T07:14:01;11.33;;;2.00;;
20101;SDS011;10210;52.284;9.892;2023-12-29T07:16:27;11.23;;;2.00;;
20101;SDS011;10210;52.284;9.892;2023-12-29T07:18:53;10.63;;;2.20;;
20101;SDS011;10210;52.284;9.892;2023-12-29T07:21:19;9.10;;;1.87;;
20101;SDS011;10210;52.284;9.892;2023-12-29T07:23:45;9.80;;;1.93;;
20101;SDS011;10210;52.284;9.892;2023-12-29T07:26:11;9.93;;;2.10;;
20101;SDS011;10210;52.284;9.892;2023-12-29T07:28:36;9.47;;;2.00;;
20101;SDS011;10210;52.284;9.892;2023-12-29T07:31:02;9.83;;;2.10;;
20101;SDS011;10210;52.284;9.892;2023-12-29T07:33:28;6.63;;;1.87;;
20101;SDS011;10210;52.284;9.892;2023-12-29T07:35:55;11.00;;;2.13;;
20101;SDS011;10210;52.284;9.892;2023-12-29T07:38:20;10.93;;;2.30;;
20101;SDS011;10210;52.284;9.892;2023-12-29T07:40:46;12.07;;;2.13;;
20101;SDS011;10210;52.284;9.892;2023-12-29T07:43:14;9.83;;;1.80;;
20101;SDS011;10210;52.284;9.892;2023-12-29T07:45:40;9.87;;;2.23;;
20101;SDS011;10210;52.284;9.892;2023-12-29T07:48:08;9.47;;;2.13;;
20101;SDS011;10210;52.284;9.892;2023-12-29T07:50:34;12.40;;;2.40;;
20101;SDS011;10210;52.284;9.892;2023-12-29T07:53:00;8.40;;;2.20;;
20101;SDS011;10210;52.284;9.892;2023-12-29T07:55:28;11.00;;;2.00;;
20101;SDS011;10210;52.284;9.892;2023-12-29T07:57:55;10.43;;;2.00;;
20101;SDS011;10210;52.284;9.892;2023-12-29T08:00:20;11.60;;;2.30;;
20101;SDS011;10210;52.284;9.892;2023-12-29T08:02:47;10.23;;;2.20;;
20101;SDS011;10210;52.284;9.892;2023-12-29T08:05:12;9.50;;;1.90;;
20101;SDS011;10210;52.284;9.892;2023-12-29T08:07:40;8.60;;;2.10;;
20101;SDS011;10210;52.284;9.892;2023-12-29T08:10:06;11.47;;;2.30;;
20101;SDS011;10210;52.284;9.892;2023-12-29T08:12:32;11.43;;;2.20;;
20101;SDS011;10210;52.284;9.892;2023-12-29T08:15:01;11.50;;;2.03;;
20101;SDS011;10210;52.284;9.892;2023-12-29T08:17:27;9.40;;;1.87;;
20101;SDS011;10210;52.284;9.892;2023-12-29T08:19:54;9.33;;;2.07;;
20101;SDS011;10210;52.284;9.892;2023-12-29T08:22:20;11.50;;;2.30;;
20101;SDS011;10210;52.284;9.892;2023-12-29T08:24:46;11.53;;;1.90;;
20101;SDS011;10210;52.284;9.892;2023-12-29T08:27:12;11.23;;;2.27;;
20101;SDS011;10210;52.284;9.892;2023-12-29T08:29:38;15.23;;;3.00;;
20101;SDS011;10210;52.284;9.892;2023-12-29T08:32:05;17.50;;;3.43;;
20101;SDS011;10210;52.284;9.892;2023-12-29T08:34:32;9.27;;;1.87;;
20101;SDS011;10210;52.284;9.892;2023-12-29T08:36:59;11.77;;;2.07;;
20101;SDS011;10210;52.284;9.892;2023-12-29T08:39:25;9.47;;;1.80;;
20101;SDS011;10210;52.284;9.892;2023-12-29T08:41:51;10.43;;;2.10;;
20101;SDS011;10210;52.284;9.892;2023-12-29T08:44:16;11.63;;;2.40;;
20101;SDS011;10210;52.284;9.892;2023-12-29T08:46:42;9.73;;;1.90;;
20101;SDS011;10210;52.284;9.892;2023-12-29T08:49:08;9.23;;;1.93;;
20101;SDS011;10210;52.284;9.892;2023-12-29T08:51:34;9.63;;;1.90;;
20101;SDS011;10210;52.284;9.892;2023-12-29T08:54:00;10.33;;;1.90;;
20101;SDS011;10210;52.284;9.892;2023-12-29T08:56:26;13.63;;;2.03;;
20101;SDS011;10210;52.284;9.892;2023-12-29T08:58:53;10.27;;;1.97;;
20101;SDS011;10210;52.284;9.892;2023-12-29T09:01:18;8.93;;;2.00;;
20101;SDS011;10210;52.284;9.892;2023-12-29T09:03:44;11.17;;;2.20;;
20101;SDS011;10210;52.284;9.892;2023-12-29T09:06:10;12.80;;;2.20;;
20101;SDS011;10210;52.284;9.892;2023-12-29T09:08:36;9.07;;;1.97;;
20101;SDS011;10210;52.284;9.892;2023-12-29T09:11:02;7.97;;;2.43;;
20101;SDS011;10210;52.284;9.892;2023-12-29T09:13:28;10.40;;;2.20;;
20101;SDS011;10210;52.284;9.892;2023-12-29T09:15:54;9.37;;;1.73;;
20101;SDS011;10210;52.284;9.892;2023-12-29T09:18:20;12.53;;;2.20;;
20101;SDS011;10210;52.284;9.892;2023-12-29T09:20:46;11.60;;;2.30;;
20101;SDS011;10210;52.284;9.892;2023-12-29T09:23:13;8.50;;;1.90;;
20101;SDS011;10210;52.284;9.892;2023-12-29T09:25:39;13.47;;;2.33;;
20101;SDS011;10210;52.284;9.892;2023-12-29T09:28:05;13.30;;;2.00;;
20101;SDS011;10210;52.284;9.892;2023-12-29T09:30:31;6.83;;;1.70;;
20101;SDS011;10210;52.284;9.892;2023-12-29T09:32:57;8.80;;;1.60;;
20101;SDS011;10210;52.284;9.892;2023-12-29T09:35:22;12.70;;;2.20;;
20101;SDS011;10210;52.284;9.892;2023-12-29T09:37:49;8.30;;;1.60;;
20101;SDS011;10210;52.284;9.892;2023-12-29T09:40:14;10.83;;;1.90;;
20101;SDS011;10210;52.284;9.892;2023-12-29T09:42:42;11.33;;;1.83;;
20101;SDS011;10210;52.284;9.892;2023-12-29T09:45:12;9.50;;;1.80;;
20101;SDS011;10210;52.284;9.892;2023-12-29T09:47:39;10.67;;;2.10;;
20101;SDS011;10210;52.284;9.892;2023-12-29T09:50:09;9.27;;;1.80;;
20101;SDS011;10210;52.284;9.892;2023-12-29T09:52:40;8.50;;;1.80;;
20101;SDS011;10210;52.284;9.892;2023-12-29T09:55:07;11.40;;;1.77;;
20101;SDS011;10210;52.284;9.892;2023-12-29T09:57:36;7.00;;;1.73;;
20101;SDS011;10210;52.284;9.892;2023-12-29T10:00:03;5.13;;;1.30;;
20101;SDS011;10210;52.284;9.892;2023-12-29T10:02:30;5.70;;;1.50;;
20101;SDS011;10210;52.284;9.892;2023-12-29T10:04:57;9.77;;;1.90;;
20101;SDS011;10210;52.284;9.892;2023-12-29T10:07:27;6.47;;;2.00;;
20101;SDS011;10210;52.284;9.892;2023-12-29T10:10:01;7.73;;;1.90;;
20101;SDS011;10210;52.284;9.892;2023-12-29T10:12:29;9.93;;;1.60;;
20101;SDS011;10210;52.284;9.892;2023-12-29T10:15:05;6.77;;;1.50;;
20101;SDS011;10210;52.284;9.892;2023-12-29T10:21:12;4.70;;;1.37;;
20101;SDS011;10210;52.284;9.892;2023-12-29T10:26:42;6.67;;;1.50;;
20101;SDS011;10210;52.284;9.892;2023-12-29T10:29:09;4.77;;;1.20;;
20101;SDS011;10210;52.284;9.892;2023-12-29T10:31:36;9.10;;;1.50;;
20101;SDS011;10210;52.284;9.892;2023-12-29T10:34:21;6.23;;;1.50;;
20101;SDS011;10210;52.284;9.892;2023-12-29T10:36:56;6.43;;;1.50;;
20101;SDS011;10210;52.284;9.892;2023-12-29T10:39:28;5.23;;;1.43;;
20101;SDS011;10210;52.284;9.892;2023-12-29T10:44:34;4.87;;;1.30;;
20101;SDS011;10210;52.284;9.892;2023-12-29T10:47:11;7.30;;;1.43;;
20101;SDS011;10210;52.284;9.892;2023-12-29T10:49:38;4.87;;;1.20;;
20101;SDS011;10210;52.284;9.892;2023-12-29T10:52:12;6.93;;;1.70;;
20101;SDS011;10210;52.284;9.892;2023-12-29T10:54:39;7.37;;;1.50;;
20101;SDS011;10210;52.284;9.892;2023-12-29T10:57:05;6.37;;;1.40;;
20101;SDS011;10210;52.284;9.892;2023-12-29T10:59:35;4.13;;;1.33;;
20101;SDS011;10210;52.284;9.892;2023-12-29T11:02:01;6.37;;;1.50;;
20101;SDS011;10210;52.284;9.892;2023-12-29T11:04:28;5.77;;;1.70;;
20101;SDS011;10210;52.284;9.892;2023-12-29T11:06:54;3.17;;;0.90;;
20101;SDS011;10210;52.284;9.892;2023-12-29T11:09:29;3.10;;;1.00;;
20101;SDS011;10210;52.284;9.892;2023-12-29T11:12:00;5.63;;;1.10;;
20101;SDS011;10210;52.284;9.892;2023-12-29T11:14:28;4.57;;;1.17;;
20101;SDS011;10210;52.284;9.892;2023-12-29T11:16:55;4.53;;;1.20;;
20101;SDS011;10210;52.284;9.892;2023-12-29T11:19:23;4.67;;;1.17;;
20101;SDS011;10210;52.284;9.892;2023-12-29T11:21:55;4.77;;;1.17;;
20101;SDS011;10210;52.284;9.892;2023-12-29T11:24:22;4.87;;;1.10;;
20101;SDS011;10210;52.284;9.892;2023-12-29T11:26:49;4.27;;;1.40;;
20101;SDS011;10210;52.284;9.892;2023-12-29T11:29:18;1.90;;;1.00;;
20101;SDS011;10210;52.284;9.892;2023-12-29T11:31:44;3.80;;;1.10;;
20101;SDS011;10210;52.284;9.892;2023-12-29T11:34:31;2.60;;;0.80;;
20101;SDS011;10210;52.284;9.892;2023-12-29T11:40:26;1.63;;;0.83;;
20101;SDS011;10210;52.284;9.892;2023-12-29T11:43:22;4.00;;;1.33;;
20101;SDS011;10210;52.284;9.892;2023-12-29T11:45:47;2.60;;;1.23;;
20101;SDS011;10210;52.284;9.892;2023-12-29T11:48:23;2.10;;;0.90;;
20101;SDS011;10210;52.284;9.892;2023-12-29T11:54:26;2.50;;;1.00;;
20101;SDS011;10210;52.284;9.892;2023-12-29T11:56:53;4.53;;;1.00;;
20101;SDS011;10210;52.284;9.892;2023-12-29T11:59:19;2.40;;;0.90;;
20101;SDS011;10210;52.284;9.892;2023-12-29T12:04:33;2.77;;;1.20;;
20101;SDS011;10210;52.284;9.892;2023-12-29T12:07:11;3.53;;;0.90;;
20101;SDS011;10210;52.284;9.892;2023-12-29T12:12:46;3.00;;;0.90;;
20101;SDS011;10210;52.284;9.892;2023-12-29T12:17:58;2.60;;;1.07;;
20101;SDS011;10210;52.284;9.892;2023-12-29T12:20:25;1.47;;;0.70;;
20101;SDS011;10210;52.284;9.892;2023-12-29T12:23:00;3.43;;;1.03;;
20101;SDS011;10210;52.284;9.892;2023-12-29T12:25:30;4.23;;;1.40;;
20101;SDS011;10210;52.284;9.892;2023-12-29T12:28:05;2.13;;;0.83;;
20101;SDS011;10210;52.284;9.892;2023-12-29T12:30:35;2.00;;;0.90;;
20101;SDS011;10210;52.284;9.892;2023-12-29T12:33:01;1.17;;;0.80;;
20101;SDS011;10210;52.284;9.892;2023-12-29T12:35:28;1.40;;;0.90;;
20101;SDS011;10210;52.284;9.892;2023-12-29T12:40:38;2.17;;;1.00;;
20101;SDS011;10210;52.284;9.892;2023-12-29T12:43:04;2.73;;;1.27;;
20101;SDS011;10210;52.284;9.892;2023-12-29T12:45:39;3.73;;;1.00;;
20101;SDS011;10210;52.284;9.892;2023-12-29T12:48:22;2.77;;;0.87;;
20101;SDS011;10210;52.284;9.892;2023-12-29T12:50:57;2.60;;;0.90;;
20101;SDS011;10210;52.284;9.892;2023-12-29T12:53:25;2.27;;;0.83;;
20101;SDS011;10210;52.284;9.892;2023-12-29T12:55:52;1.77;;;1.00;;
20101;SDS011;10210;52.284;9.892;2023-12-29T12:58:20;3.43;;;1.10;;
20101;SDS011;10210;52.284;9.892;2023-12-29T13:00:46;1.67;;;0.90;;
20101;SDS011;10210;52.284;9.892;2023-12-29T13:03:14;2.03;;;1.07;;
20101;SDS011;10210;52.284;9.892;2023-12-29T13:05:41;1.87;;;0.80;;
20101;SDS011;10210;52.284;9.892;2023-12-29T13:08:08;2.03;;;0.90;;
20101;SDS011;10210;52.284;9.892;2023-12-29T13:10:40;3.40;;;0.83;;
20101;SDS011;10210;52.284;9.892;2023-12-29T13:13:07;1.13;;;0.63;;
20101;SDS011;10210;52.284;9.892;2023-12-29T13:15:35;2.27;;;0.73;;
20101;SDS011;10210;52.284;9.892;2023-12-29T13:18:13;1.23;;;0.70;;
20101;SDS011;10210;52.284;9.892;2023-12-29T13:20:48;0.70;;;0.60;;
20101;SDS011;10210;52.284;9.892;2023-12-29T13:23:15;0.80;;;0.70;;
20101;SDS011;10210;52.284;9.892;2023-12-29T13:25:44;3.10;;;0.80;;
20101;SDS011;10210;52.284;9.892;2023-12-29T13:28:12;2.30;;;0.90;;
20101;SDS011;10210;52.284;9.892;2023-12-29T13:30:40;2.47;;;1.03;;
20101;SDS011;10210;52.284;9.892;2023-12-29T13:33:11;3.37;;;1.00;;
20101;SDS011;10210;52.284;9.892;2023-12-29T13:35:54;2.90;;;1.20;;
20101;SDS011;10210;52.284;9.892;2023-12-29T13:38:33;2.43;;;1.00;;
20101;SDS011;10210;52.284;9.892;2023-12-29T13:41:11;2.00;;;1.07;;
20101;SDS011;10210;52.284;9.892;2023-12-29T13:43:39;1.60;;;1.13;;
20101;SDS011;10210;52.284;9.892;2023-12-29T13:46:09;2.50;;;1.00;;
20101;SDS011;10210;52.284;9.892;2023-12-29T13:48:38;2.37;;;0.90;;
20101;SDS011;10210;52.284;9.892;2023-12-29T13:51:06;3.70;;;1.10;;
20101;SDS011;10210;52.284;9.892;2023-12-29T13:53:32;2.40;;;1.23;;
20101;SDS011;10210;52.284;9.892;2023-12-29T13:56:08;2.70;;;1.30;;
20101;SDS011;10210;52.284;9.892;2023-12-29T13:58:35;2.83;;;1.07;;
20101;SDS011;10210;52.284;9.892;2023-12-29T14:01:01;3.67;;;1.17;;
20101;SDS011;10210;52.284;9.892;2023-12-29T14:03:43;2.60;;;1.20;;
20101;SDS011;10210;52.284;9.892;2023-12-29T14:06:19;4.00;;;1.30;;
20101;SDS011;10210;52.284;9.892;2023-12-29T14:08:53;3.30;;;1.30;;
20101;SDS011;10210;52.284;9.892;2023-12-29T14:11:18;2.37;;;1.30;;
20101;SDS011;10210;52.284;9.892;2023-12-29T14:13:44;2.47;;;1.40;;
20101;SDS011;10210;52.284;9.892;2023-12-29T14:16:13;2.00;;;1.50;;
20101;SDS011;10210;52.284;9.892;2023-12-29T14:21:20;4.73;;;1.60;;
20101;SDS011;10210;52.284;9.892;2023-12-29T14:26:36;3.00;;;1.53;;
20101;SDS011;10210;52.284;9.892;2023-12-29T14:29:06;5.03;;;1.50;;
20101;SDS011;10210;52.284;9.892;2023-12-29T14:34:04;3.13;;;1.60;;
20101;SDS011;10210;52.284;9.892;2023-12-29T14:36:31;2.50;;;1.50;;
20101;SDS011;10210;52.284;9.892;2023-12-29T14:38:58;6.10;;;1.37;;
20101;SDS011;10210;52.284;9.892;2023-12-29T14:41:24;2.43;;;1.50;;
20101;SDS011;10210;52.284;9.892;2023-12-29T14:43:50;5.87;;;1.70;;
20101;SDS011;10210;52.284;9.892;2023-12-29T14:46:16;4.33;;;1.53;;
20101;SDS011;10210;52.284;9.892;2023-12-29T14:48:42;3.80;;;1.50;;
20101;SDS011;10210;52.284;9.892;2023-12-29T14:51:08;4.27;;;1.73;;
20101;SDS011;10210;52.284;9.892;2023-12-29T14:53:36;3.77;;;1.70;;
20101;SDS011;10210;52.284;9.892;2023-12-29T14:56:02;5.80;;;1.87;;
20101;SDS011;10210;52.284;9.892;2023-12-29T14:58:29;2.80;;;1.50;;
20101;SDS011;10210;52.284;9.892;2023-12-29T15:00:56;7.37;;;1.80;;
20101;SDS011;10210;52.284;9.892;2023-12-29T15:03:22;4.30;;;1.90;;
20101;SDS011;10210;52.284;9.892;2023-12-29T15:05:48;4.80;;;1.63;;
20101;SDS011;10210;52.284;9.892;2023-12-29T15:08:14;5.00;;;1.60;;
20101;SDS011;10210;52.284;9.892;2023-12-29T15:10:42;4.07;;;1.50;;
20101;SDS011;10210;52.284;9.892;2023-12-29T15:13:09;5.77;;;1.60;;
20101;SDS011;10210;52.284;9.892;2023-12-29T15:15:36;4.23;;;1.70;;
20101;SDS011;10210;52.284;9.892;2023-12-29T15:18:02;7.17;;;1.67;;
20101;SDS011;10210;52.284;9.892;2023-12-29T15:20:28;6.40;;;2.10;;
20101;SDS011;10210;52.284;9.892;2023-12-29T15:22:54;5.03;;;1.80;;
20101;SDS011;10210;52.284;9.892;2023-12-29T15:25:24;5.00;;;1.97;;
20101;SDS011;10210;52.284;9.892;2023-12-29T15:27:51;7.73;;;2.27;;
20101;SDS011;10210;52.284;9.892;2023-12-29T15:30:18;6.80;;;2.00;;
20101;SDS011;10210;52.284;9.892;2023-12-29T15:32:44;7.40;;;2.30;;